Time;durP1;ratioP1;P1;durP2;ratioP2;P2;SDS_P1;SDS_P2;PMS_P1;PMS_P2;Temp;Humidity;BMP_temperature;BMP_pressure;BME280_temperature;BME280_humidity;BME280_pressure;Samples;Min_cycle;Max_cycle;Signal;HPM_P1;HPM_P2
2021/12/05 00:20:51;;;;;;;8.00;6.73;;;5.80;72.30;;;8.79;55.40;99606.53;4917438;29;20198;-47
2021/12/05 00:23:39;;;;;;;7.47;6.70;;;5.70;72.20;;;8.71;55.51;99614.56;4916825;29;20685;-47
2021/12/05 00:26:13;;;;;;;7.43;6.70;;;5.70;72.00;;;8.59;55.72;99625.75;4916770;29;20580;-49
2021/12/05 00:31:44;;;;;;;8.63;6.90;;;5.60;71.80;;;8.32;56.38;99616.06;4936097;29;20268;-48
2021/12/05 00:42:47;;;;;;;8.40;7.17;;;5.50;73.60;;;8.55;56.82;99629.75;4939993;29;20596;-48
2021/12/05 00:48:01;;;;;;;9.13;7.77;;;5.60;73.00;;;8.46;56.45;99630.91;4939289;29;20222;-45
2021/12/05 00:54:03;;;;;;;8.00;7.17;;;5.60;72.60;;;8.35;56.98;99629.56;4939507;29;20192;-47
2021/12/05 01:04:56;;;;;;;10.80;8.57;;;5.50;73.30;;;8.49;56.59;99633.13;4949736;29;20205;-48
2021/12/05 01:10:18;;;;;;;9.17;7.70;;;5.50;74.10;;;8.54;56.42;99641.25;4938948;29;20271;-48
2021/12/05 01:15:41;;;;;;;9.40;7.87;;;5.50;73.70;;;8.64;56.52;99633.88;4921829;29;20511;-47
2021/12/05 01:18:16;;;;;;;9.90;8.10;;;5.50;73.70;;;8.69;56.49;99632.31;4938682;29;20222;-47
2021/12/05 01:20:47;;;;;;;7.97;6.97;;;5.60;73.90;;;8.76;56.68;99634.97;4938898;29;20194;-48
2021/12/05 01:23:42;;;;;;;11.20;8.53;;;5.60;73.90;;;8.82;56.35;99649.94;4938788;29;20652;-50
2021/12/05 01:26:35;;;;;;;10.17;8.83;;;5.60;74.00;;;8.87;56.47;99646.78;4938588;29;20667;-47
2021/12/05 01:32:01;;;;;;;10.97;8.53;;;5.70;73.80;;;8.95;55.92;99668.44;4938796;29;20223;-50
2021/12/05 01:40:21;;;;;;;9.90;8.27;;;5.80;73.40;;;9.01;56.45;99670.28;4938771;29;20201;-49
2021/12/05 02:37:52;;;;;;;9.33;8.07;;;5.70;74.60;;;8.80;56.80;99680.81;4936716;29;20207;-47
2021/12/05 02:45:47;;;;;;;9.83;8.47;;;5.80;74.50;;;9.04;56.89;99674.34;4922068;29;20218;-48
2021/12/05 02:48:16;;;;;;;9.57;7.20;;;5.90;74.30;;;9.11;56.49;99683.88;4936959;29;20225;-45
2021/12/05 02:50:44;;;;;;;9.63;8.10;;;5.90;74.00;;;9.18;56.37;99674.25;4920451;29;20685;-48
2021/12/05 02:53:20;;;;;;;8.83;7.80;;;6.00;74.00;;;9.22;56.24;99679.94;4937437;29;20262;-48
2021/12/05 02:55:50;;;;;;;11.13;9.20;;;6.00;74.00;;;9.24;56.13;99673.50;4937341;29;20241;-48
2021/12/05 03:03:32;;;;;;;9.57;8.57;;;6.10;74.00;;;9.36;55.80;99692.97;4937477;29;20231;-48
2021/12/05 03:06:11;;;;;;;9.47;8.13;;;6.10;73.90;;;9.39;56.22;99682.03;4937084;29;20206;-48
2021/12/05 03:08:40;;;;;;;8.90;7.20;;;6.10;73.80;;;9.42;55.67;99692.19;4936682;29;20218;-47
2021/12/05 03:11:09;;;;;;;9.43;8.00;;;6.20;73.80;;;9.47;56.15;99691.59;4936336;29;20295;-47
2021/12/05 03:13:40;;;;;;;9.63;8.67;;;6.20;73.60;;;9.48;55.38;99691.38;4936629;29;20265;-48
2021/12/05 03:16:11;;;;;;;10.53;8.93;;;6.20;73.50;;;9.48;55.96;99686.13;4937523;29;20194;-47
2021/12/05 03:18:40;;;;;;;9.57;8.10;;;6.20;73.30;;;9.50;55.57;99699.91;4936178;29;20245;-51
2021/12/05 03:21:09;;;;;;;9.67;8.60;;;6.20;73.30;;;9.51;55.72;99691.00;4936537;29;20534;-51
2021/12/05 03:23:43;;;;;;;9.97;8.37;;;6.20;73.30;;;9.48;55.34;99695.84;4935867;29;20303;-49
2021/12/05 03:26:14;;;;;;;11.47;9.00;;;6.30;73.20;;;9.46;55.36;99698.66;4935846;29;20291;-47
2021/12/05 03:28:43;;;;;;;13.83;8.97;;;6.30;73.30;;;9.43;55.64;99696.44;4935850;29;20224;-49
2021/12/05 03:31:12;;;;;;;9.03;7.97;;;6.30;73.10;;;9.42;55.91;99700.06;4936174;29;20202;-48
2021/12/05 03:33:40;;;;;;;11.27;9.07;;;6.20;73.00;;;9.42;55.34;99700.06;4936351;29;20298;-49
2021/12/05 03:36:09;;;;;;;10.17;8.97;;;6.20;73.10;;;9.44;55.97;99692.78;4936463;29;20627;-51
2021/12/05 03:38:41;;;;;;;9.47;8.47;;;6.20;73.40;;;9.46;55.94;99690.78;4935712;29;20687;-48
2021/12/05 03:41:10;;;;;;;10.60;9.17;;;6.20;73.50;;;9.46;55.40;99706.53;4936829;29;20226;-48
2021/12/05 03:43:43;;;;;;;11.43;9.83;;;6.30;73.50;;;9.45;55.64;99717.25;4936587;29;20203;-47
2021/12/05 03:46:12;;;;;;;12.93;10.30;;;6.20;73.20;;;9.38;55.80;99722.47;4936323;29;20203;-47
2021/12/05 03:48:44;;;;;;;12.67;9.50;;;6.30;73.10;;;9.32;56.16;99728.47;4936409;29;20221;-46
2021/12/05 03:51:15;;;;;;;12.10;10.47;;;6.20;73.10;;;9.23;56.34;99734.84;4935951;29;20214;-46
2021/12/05 03:53:44;;;;;;;12.13;9.87;;;6.20;73.20;;;9.18;56.17;99742.50;4919324;29;20199;-46
2021/12/05 03:56:16;;;;;;;13.10;10.67;;;6.20;73.30;;;9.12;56.81;99730.13;4936435;29;20286;-50
2021/12/05 03:58:46;;;;;;;11.30;9.70;;;6.10;73.30;;;9.06;56.59;99738.75;4919008;29;20215;-49
2021/12/05 04:01:15;;;;;;;12.83;9.13;;;6.10;73.30;;;9.05;56.80;99742.41;4936463;29;20280;-48
2021/12/05 04:03:47;;;;;;;12.13;10.30;;;6.10;73.50;;;9.04;56.86;99735.50;4936405;29;20697;-49
2021/12/05 04:06:19;;;;;;;9.97;8.93;;;6.00;73.60;;;9.09;57.06;99743.63;4935900;29;20257;-48
2021/12/05 04:08:49;;;;;;;11.03;8.67;;;6.00;73.90;;;9.16;56.99;99743.69;4935887;29;20243;-46
2021/12/05 04:11:25;;;;;;;11.30;9.33;;;6.00;74.10;;;9.24;56.93;99747.00;4936560;29;20209;-49
2021/12/05 04:13:53;;;;;;;13.73;10.80;;;6.10;74.40;;;9.30;56.76;99746.22;4937836;29;20270;-47
2021/12/05 04:16:21;;;;;;;11.57;9.17;;;6.10;74.40;;;9.33;56.78;99745.84;4940194;29;20205;-49
2021/12/05 04:18:49;;;;;;;10.83;9.20;;;6.10;74.40;;;9.35;56.75;99754.34;4938989;29;20214;-47
2021/12/05 04:21:18;;;;;;;12.03;10.23;;;6.20;74.50;;;9.40;56.65;99761.66;4939233;29;20200;-48
2021/12/05 04:23:47;;;;;;;12.30;10.33;;;6.20;74.50;;;9.41;56.17;99756.19;4938881;29;20210;-49
2021/12/05 04:26:17;;;;;;;10.73;9.30;;;6.20;74.30;;;9.44;56.98;99755.81;4939280;29;20193;-48
2021/12/05 04:28:46;;;;;;;11.83;9.47;;;6.30;74.50;;;9.48;56.62;99749.16;4938783;29;20255;-47
2021/12/05 04:31:15;;;;;;;12.47;10.20;;;6.30;74.50;;;9.50;56.27;99762.94;4939176;29;20332;-50
2021/12/05 04:33:43;;;;;;;11.13;9.90;;;6.30;74.30;;;9.50;56.24;99767.38;4939368;29;20674;-49
2021/12/05 04:36:11;;;;;;;11.10;9.67;;;6.30;74.20;;;9.48;56.89;99766.75;4939176;29;20202;-48
2021/12/05 04:38:38;;;;;;;12.10;9.73;;;6.30;74.10;;;9.48;56.70;99779.91;4939123;29;20218;-48
2021/12/05 04:41:07;;;;;;;10.70;9.60;;;6.30;74.10;;;9.48;56.96;99779.91;4939096;29;20210;-48
2021/12/05 04:43:38;;;;;;;12.23;9.50;;;6.30;74.20;;;9.49;56.53;99777.06;4939428;29;20515;-48
2021/12/05 04:46:09;;;;;;;13.27;10.30;;;6.40;74.50;;;9.53;56.76;99783.56;4939023;29;20545;-48
2021/12/05 04:48:38;;;;;;;13.50;9.03;;;6.30;74.30;;;9.58;56.33;99790.06;4938792;29;20541;-48
2021/12/05 04:51:06;;;;;;;11.97;10.10;;;6.30;74.50;;;9.60;56.68;99795.94;4938958;29;20280;-48
2021/12/05 04:53:34;;;;;;;10.57;9.33;;;6.40;74.70;;;9.64;56.42;99797.16;4939055;29;20679;-50
2021/12/05 04:56:02;;;;;;;13.73;10.30;;;6.40;74.80;;;9.66;56.44;99803.03;4939420;29;20198;-48
2021/12/05 04:58:31;;;;;;;15.83;10.03;;;6.40;74.80;;;9.70;56.98;99801.69;4938962;29;20243;-49
2021/12/05 05:01:00;;;;;;;11.53;9.20;;;6.40;74.90;;;9.72;56.83;99802.28;4938549;29;20199;-49
2021/12/05 05:03:29;;;;;;;12.93;10.20;;;6.50;74.90;;;9.76;56.80;99814.03;4938881;29;20222;-48
2021/12/05 05:06:11;;;;;;;11.77;8.83;;;6.50;75.00;;;9.79;56.45;99813.66;4921986;29;20186;-51
2021/12/05 05:08:39;;;;;;;15.10;11.27;;;6.50;74.90;;;9.82;56.44;99818.50;4938082;29;20224;-48
2021/12/05 05:11:13;;;;;;;11.70;10.03;;;6.50;74.80;;;9.79;56.80;99818.91;4938408;29;20202;-48
2021/12/05 05:13:45;;;;;;;11.73;9.10;;;6.60;74.90;;;9.78;56.23;99822.53;4938906;29;20268;-51
2021/12/05 05:16:14;;;;;;;11.17;9.63;;;6.60;74.70;;;9.79;56.62;99824.16;4938174;29;20230;-48
2021/12/05 05:19:02;;;;;;;10.03;8.33;;;6.60;74.80;;;9.77;56.82;99821.72;4938272;29;20217;-48
2021/12/05 05:29:50;;;;;;;12.07;8.97;;;6.70;75.00;;;9.83;56.93;99841.16;4939090;29;20220;-46
2021/12/05 05:48:04;;;;;;;11.23;9.27;;;6.80;74.80;;;9.91;56.85;99869.94;4937722;29;20224;-46
2021/12/05 05:50:31;;;;;;;13.43;9.07;;;6.80;74.90;;;9.92;56.79;99868.91;4938028;29;20195;-49
2021/12/05 05:52:58;;;;;;;12.57;9.27;;;6.80;74.80;;;9.93;57.17;99867.94;4937977;29;20205;-48
2021/12/05 05:55:25;;;;;;;12.67;9.73;;;6.80;74.90;;;9.93;56.83;99871.38;4937848;29;20205;-47
2021/12/05 06:00:33;;;;;;;11.30;8.87;;;6.90;74.90;;;9.85;57.06;99882.00;4937822;29;20203;-48
2021/12/05 06:05:51;;;;;;;14.23;10.00;;;6.90;74.90;;;9.70;57.60;99894.41;4937778;29;20190;-51
2021/12/05 06:08:23;;;;;;;13.87;9.30;;;6.90;74.80;;;9.65;57.81;99890.75;4937152;29;20221;-47
2021/12/05 06:10:51;;;;;;;10.67;8.13;;;6.80;74.80;;;9.64;57.84;99894.38;4937447;29;20282;-51
2021/12/05 06:13:19;;;;;;;8.63;7.33;;;6.80;75.00;;;9.64;58.38;99900.44;4937537;29;20204;-50
2021/12/05 06:15:48;;;;;;;10.10;5.87;;;6.80;75.10;;;9.71;58.15;99905.75;4937491;29;20275;-50
2021/12/05 06:18:17;;;;;;;9.80;5.60;;;6.80;75.20;;;9.73;57.61;99903.75;4937275;29;20689;-48
2021/12/05 06:20:46;;;;;;;8.13;5.57;;;6.80;75.30;;;9.77;57.61;99905.78;4937628;29;20278;-47
2021/12/05 06:23:14;;;;;;;7.17;5.07;;;6.80;75.40;;;9.78;58.07;99909.25;4938090;29;20265;-49
2021/12/05 06:25:45;;;;;;;6.43;4.57;;;6.80;75.50;;;9.76;58.47;99919.13;4937476;29;20273;-48
2021/12/05 06:28:14;;;;;;;8.73;4.90;;;6.80;75.20;;;9.74;57.66;99911.44;4936559;29;20214;-47
2021/12/05 06:30:49;;;;;;;6.40;4.27;;;6.90;75.00;;;9.70;57.41;99922.53;4936877;29;20194;-46
2021/12/05 06:46:54;;;;;;;5.70;4.03;;;6.80;74.60;;;9.54;58.14;99945.41;4936424;29;20695;-47
2021/12/05 06:49:23;;;;;;;4.33;3.90;;;6.80;74.70;;;9.52;57.85;99951.84;4936876;29;20223;-47
2021/12/05 06:51:50;;;;;;;6.40;4.37;;;6.80;74.70;;;9.51;57.82;99953.66;4936952;29;20197;-48
2021/12/05 06:54:18;;;;;;;4.47;3.97;;;6.70;74.60;;;9.47;57.94;99956.84;4937055;29;20212;-48
2021/12/05 06:56:45;;;;;;;4.37;3.70;;;6.70;74.60;;;9.45;58.00;99957.06;4937460;29;20192;-47
2021/12/05 06:59:12;;;;;;;7.13;4.63;;;6.70;74.70;;;9.47;57.98;99962.94;4936381;29;20293;-49
2021/12/05 07:01:40;;;;;;;6.03;4.50;;;6.70;74.90;;;9.44;58.42;99963.28;4936659;29;20194;-48
2021/12/05 07:04:20;;;;;;;6.77;4.73;;;6.70;74.90;;;9.39;57.93;99965.66;4936282;29;20194;-49
2021/12/05 07:06:49;;;;;;;6.20;4.47;;;6.70;74.90;;;9.30;58.38;99969.41;4936577;29;20274;-47
2021/12/05 07:09:16;;;;;;;5.80;4.47;;;6.60;75.60;;;9.27;58.68;99972.38;4936990;29;20219;-47
2021/12/05 07:14:33;;;;;;;7.40;4.83;;;6.60;75.00;;;9.24;58.97;99971.97;4936727;29;20200;-48
2021/12/05 07:17:07;;;;;;;5.93;4.10;;;6.60;75.20;;;9.23;59.17;99983.44;4936456;29;20194;-47
2021/12/05 07:22:22;;;;;;;5.33;4.57;;;6.50;75.30;;;9.26;59.07;99989.16;4936819;29;20266;-48
2021/12/05 07:24:59;;;;;;;6.43;4.30;;;6.50;75.40;;;9.27;59.02;99992.59;4936441;29;20633;-47
2021/12/05 07:41:50;;;;;;;8.53;5.07;;;6.50;75.90;;;9.11;59.20;100011.97;4917373;29;20547;-46
2021/12/05 07:44:18;;;;;;;9.53;5.30;;;6.50;75.80;;;9.10;59.40;100018.25;4917841;29;20246;-49
2021/12/05 07:46:46;;;;;;;10.73;5.73;;;6.40;75.90;;;9.08;59.78;100020.22;4917167;29;20201;-47
2021/12/05 07:49:17;;;;;;;8.80;4.73;;;6.40;75.90;;;9.09;59.59;100021.03;4919687;29;20235;-50
2021/12/05 07:51:47;;;;;;;7.27;5.53;;;6.40;76.00;;;9.08;59.73;100025.47;4904436;29;20275;-47
2021/12/05 07:54:31;;;;;;;8.50;5.63;;;6.40;76.00;;;9.11;59.75;100038.22;4929843;29;20289;-48
2021/12/05 07:57:10;;;;;;;7.27;6.17;;;6.40;76.10;;;9.16;59.26;100040.31;4922973;29;20200;-50
2021/12/05 08:00:06;;;;;;;9.17;6.20;;;6.40;76.20;;;9.17;59.21;100045.41;4923227;29;20655;-49
2021/12/05 08:16:29;;;;;;;10.57;6.73;;;6.50;76.20;;;9.37;58.98;100072.69;4920729;29;20275;-48
2021/12/05 08:18:56;;;;;;;10.07;6.83;;;6.60;76.10;;;9.41;59.09;100083.66;4920414;29;20203;-47
2021/12/05 08:21:24;;;;;;;9.07;6.37;;;6.60;76.10;;;9.45;58.67;100075.22;4920683;29;20195;-49
2021/12/05 08:23:52;;;;;;;10.47;7.23;;;6.60;76.00;;;9.50;58.99;100088.63;4920624;29;20657;-48
2021/12/05 08:26:30;;;;;;;8.50;7.30;;;6.60;76.00;;;9.53;58.53;100084.84;4920947;29;20650;-50
2021/12/05 08:29:07;;;;;;;12.33;7.43;;;6.70;76.00;;;9.56;58.63;100081.81;4923710;29;20216;-47
2021/12/05 09:26:31;;;;;;;11.03;7.27;;;7.30;75.70;;;10.59;57.31;100187.50;4922681;29;20264;-48
2021/12/05 09:30:06;;;;;;;12.40;7.93;;;7.30;75.70;;;10.59;56.65;100196.22;4932120;29;20224;-51
2021/12/05 10:10:37;;;;;;;11.90;9.50;;;7.60;75.50;;;10.78;56.84;100265.84;4926262;29;20305;-48
2021/12/05 10:13:20;;;;;;;11.43;8.03;;;7.60;75.40;;;10.79;57.16;100270.91;4918985;29;20206;-47
2021/12/05 10:18:48;;;;;;;11.77;9.20;;;7.60;75.60;;;10.83;57.04;100277.47;4937094;29;20245;-49
2021/12/05 10:37:50;;;;;;;12.63;9.60;;;7.60;75.60;;;10.94;56.92;100291.09;4922522;29;20751;-48
2021/12/05 10:40:33;;;;;;;10.80;9.10;;;7.70;75.80;;;10.98;56.72;100298.47;4936855;29;20208;-48
2021/12/05 10:43:09;;;;;;;12.10;9.20;;;7.70;75.80;;;11.03;57.01;100298.69;4931988;29;20206;-49
2021/12/05 10:45:41;;;;;;;11.57;8.93;;;7.70;75.90;;;11.08;56.95;100306.06;4936893;29;20193;-48
2021/12/05 10:48:19;;;;;;;10.70;8.70;;;7.70;75.80;;;11.13;56.51;100303.66;4936518;29;20218;-46
2021/12/05 10:50:49;;;;;;;11.47;9.50;;;7.80;75.90;;;11.16;56.48;100305.91;4936546;29;20227;-47
2021/12/05 10:53:41;;;;;;;10.20;8.77;;;7.80;75.80;;;11.16;56.42;100312.00;4936834;29;20304;-47
2021/12/05 10:56:15;;;;;;;12.20;8.63;;;7.80;75.80;;;11.21;56.17;100314.06;4936903;29;20277;-47
2021/12/05 10:58:53;;;;;;;12.30;9.93;;;7.90;75.70;;;11.23;56.54;100317.31;4919969;29;20286;-47
2021/12/05 11:01:32;;;;;;;12.23;8.90;;;7.90;75.70;;;11.23;56.10;100310.25;4937734;29;20194;-47
2021/12/05 11:04:05;;;;;;;10.20;8.17;;;7.90;75.50;;;11.24;56.39;100311.88;4920332;29;20234;-49
2021/12/05 11:06:49;;;;;;;11.63;8.93;;;7.90;75.50;;;11.25;56.12;100328.47;4937785;29;20656;-46
2021/12/05 11:09:23;;;;;;;14.53;9.70;;;7.90;75.40;;;11.26;56.12;100324.84;4918622;29;20261;-47
2021/12/05 11:12:00;;;;;;;15.60;9.57;;;7.90;75.50;;;11.28;56.66;100328.09;4918368;29;20194;-48
2021/12/05 11:14:33;;;;;;;12.83;9.60;;;7.90;75.50;;;11.31;56.35;100325.09;4918226;29;20234;-51
2021/12/05 11:17:05;;;;;;;16.90;12.40;;;8.00;75.80;;;11.34;56.24;100332.59;4917976;29;20194;-48
2021/12/05 11:19:38;;;;;;;10.73;8.83;;;8.00;75.80;;;11.36;56.38;100335.91;4917832;29;20259;-48
2021/12/05 11:22:15;;;;;;;9.97;8.73;;;8.00;75.80;;;11.37;56.45;100334.88;4917663;29;20310;-49
2021/12/05 11:24:49;;;;;;;10.87;9.27;;;8.00;75.70;;;11.36;56.18;100341.16;4920174;29;20536;-50
2021/12/05 11:27:31;;;;;;;12.27;10.23;;;8.00;75.70;;;11.34;56.68;100338.69;4936190;29;20242;-48
2021/12/05 11:30:14;;;;;;;13.20;9.93;;;8.10;75.70;;;11.32;56.24;100348.63;4937253;29;20232;-50
2021/12/05 11:32:48;;;;;;;15.77;10.13;;;8.10;75.50;;;11.33;56.24;100341.53;4936922;29;20198;-49
2021/12/05 11:35:37;;;;;;;11.03;9.87;;;8.10;75.50;;;11.30;56.44;100348.00;4936923;29;20195;-50
2021/12/05 11:38:10;;;;;;;12.23;10.23;;;8.00;75.60;;;11.34;56.53;100351.06;4936263;29;20248;-49
2021/12/05 11:40:54;;;;;;;13.43;9.93;;;8.10;75.80;;;11.35;56.65;100350.06;4936466;29;20190;-49
2021/12/05 11:43:27;;;;;;;10.90;9.70;;;8.10;75.80;;;11.36;56.82;100356.97;4935744;29;20210;-49
2021/12/05 11:46:02;;;;;;;15.30;11.80;;;8.10;75.80;;;11.38;56.63;100349.69;4935948;29;20205;-46
2021/12/05 11:48:34;;;;;;;13.77;9.90;;;8.10;75.30;;;11.39;56.77;100359.22;4935545;29;20674;-47
2021/12/05 11:51:28;;;;;;;14.20;10.77;;;8.10;75.50;;;11.39;56.50;100361.84;4936841;29;20224;-49
2021/12/05 11:54:00;;;;;;;13.30;11.20;;;8.10;75.80;;;11.45;56.77;100361.09;4937162;29;20270;-46
2021/12/05 11:56:46;;;;;;;12.50;10.30;;;8.10;75.70;;;11.47;56.82;100369.63;4935880;29;20206;-49
2021/12/05 11:59:19;;;;;;;13.67;11.20;;;8.20;76.10;;;11.53;56.29;100367.03;4935957;29;20237;-47
2021/12/05 12:01:59;;;;;;;12.90;10.77;;;8.20;75.90;;;11.59;56.25;100365.47;4919033;29;20201;-49
2021/12/05 12:04:44;;;;;;;15.23;10.80;;;8.30;75.60;;;11.63;56.46;100358.81;4936173;29;20197;-47
2021/12/05 12:07:18;;;;;;;12.47;11.17;;;8.30;75.50;;;11.68;56.07;100356.47;4935896;29;20255;-48
2021/12/05 12:09:52;;;;;;;14.60;11.47;;;8.30;75.40;;;11.74;55.77;100360.97;4935772;29;20217;-49
2021/12/05 12:12:21;;;;;;;13.60;11.10;;;8.40;75.40;;;11.75;55.73;100367.88;4934902;29;20208;-50
2021/12/05 12:14:49;;;;;;;13.83;11.67;;;8.40;75.30;;;11.76;55.86;100369.50;4918772;29;20222;-49
2021/12/05 12:17:17;;;;;;;13.63;10.60;;;8.40;74.50;;;11.77;56.14;100365.84;4935758;29;20757;-48
2021/12/05 12:19:49;;;;;;;14.80;11.33;;;8.40;74.80;;;11.76;55.68;100368.69;4935741;29;20553;-48
2021/12/05 12:22:20;;;;;;;16.40;10.67;;;8.40;74.80;;;11.77;55.80;100365.84;4935695;29;20194;-50
2021/12/05 12:24:51;;;;;;;14.00;10.50;;;8.50;74.80;;;11.78;55.50;100366.66;4936909;29;20202;-48
2021/12/05 12:27:21;;;;;;;14.53;10.63;;;8.50;74.70;;;11.78;55.65;100359.59;4935518;29;20294;-48
2021/12/05 12:29:52;;;;;;;17.97;11.37;;;8.50;74.50;;;11.79;55.52;100363.84;4935682;29;20229;-49
2021/12/05 12:32:28;;;;;;;14.70;11.47;;;8.50;74.50;;;11.82;55.47;100366.09;4918249;29;20261;-48
2021/12/05 12:35:05;;;;;;;19.47;15.93;;;8.50;74.50;;;11.83;55.21;100367.75;4937800;29;20202;-48
2021/12/05 12:37:58;;;;;;;13.40;11.10;;;8.50;74.40;;;11.88;55.22;100372.44;4939176;29;20240;-49
2021/12/05 12:40:42;;;;;;;17.80;10.50;;;8.50;74.50;;;11.95;55.50;100379.38;4922890;29;20307;-48
2021/12/05 12:43:48;;;;;;;14.37;11.67;;;8.50;74.70;;;11.98;55.09;100376.34;4939237;29;20253;-49
2021/12/05 12:46:24;;;;;;;16.10;10.87;;;8.60;74.80;;;12.05;55.74;100385.13;4939472;29;20228;-50
2021/12/05 12:48:56;;;;;;;13.20;10.30;;;8.60;74.50;;;12.05;54.96;100397.53;4939348;29;20301;-51
2021/12/05 12:51:35;;;;;;;13.10;10.40;;;8.60;74.30;;;12.00;55.22;100392.81;4939567;29;20232;-48
2021/12/05 12:54:08;;;;;;;14.27;11.87;;;8.70;74.20;;;11.95;54.79;100400.50;4938566;29;20221;-50
2021/12/05 12:56:36;;;;;;;14.70;10.10;;;8.60;74.00;;;11.92;55.12;100394.78;4938680;29;20604;-48
2021/12/05 12:59:10;;;;;;;12.53;11.23;;;8.60;73.90;;;11.87;55.23;100397.16;4939508;29;20292;-50
2021/12/05 13:02:14;;;;;;;17.03;12.20;;;8.60;73.80;;;11.80;54.71;100412.13;4938635;29;20199;-49
2021/12/05 13:10:32;;;;;;;15.77;12.07;;;8.40;72.40;;;11.17;54.79;100429.50;4938879;29;20674;-47
2021/12/05 13:13:08;;;;;;;12.90;10.43;;;8.20;71.90;;;10.92;55.47;100428.22;4939408;29;20274;-49
2021/12/05 13:15:44;;;;;;;12.70;10.50;;;8.10;72.10;;;10.79;55.68;100422.81;4938609;29;20193;-49
2021/12/05 13:18:29;;;;;;;15.93;11.57;;;8.00;72.50;;;10.67;56.20;100425.06;4937874;29;20220;-48
2021/12/05 13:21:07;;;;;;;13.93;10.70;;;7.80;73.30;;;10.62;56.31;100432.72;4938715;29;20193;-47
2021/12/05 13:23:43;;;;;;;17.17;10.90;;;7.70;73.50;;;10.58;56.39;100431.41;4938445;29;20213;-48
2021/12/05 13:26:24;;;;;;;13.90;11.53;;;7.60;73.90;;;10.58;56.63;100436.69;4939225;29;20277;-49
2021/12/05 13:28:58;;;;;;;15.97;11.93;;;7.60;74.60;;;10.59;56.59;100442.78;4938004;29;20243;-48
2021/12/05 13:31:53;;;;;;;15.47;11.43;;;7.50;74.70;;;10.49;57.13;100456.19;4939357;29;20586;-47
2021/12/05 13:34:48;;;;;;;17.70;13.17;;;7.50;74.70;;;10.42;57.27;100460.53;4921611;29;20217;-50
2021/12/05 13:37:38;;;;;;;14.10;11.70;;;7.40;74.80;;;10.40;56.88;100465.19;4938312;29;20205;-48
2021/12/05 13:40:16;;;;;;;16.07;12.17;;;7.40;75.10;;;10.41;56.99;100461.53;4938248;29;20194;-50
2021/12/05 13:42:49;;;;;;;16.13;11.67;;;7.40;75.30;;;10.42;57.14;100464.97;4939097;29;20214;-48
2021/12/05 13:45:42;;;;;;;13.67;12.17;;;7.40;75.30;;;10.32;56.95;100462.59;4937619;29;20194;-48
2021/12/05 13:48:25;;;;;;;13.17;9.97;;;7.40;75.80;;;10.28;57.18;100469.25;4918179;29;20643;-51
2021/12/05 13:50:58;;;;;;;13.83;11.33;;;7.30;74.80;;;10.28;57.20;100479.75;4919017;29;20226;-51
2021/12/05 13:53:46;;;;;;;15.70;11.10;;;7.30;74.90;;;10.26;57.32;100470.41;4919370;29;20205;-49
2021/12/05 13:56:24;;;;;;;15.20;10.87;;;7.30;75.10;;;10.30;57.30;100475.13;4919071;29;20681;-49
2021/12/05 13:58:56;;;;;;;13.37;10.67;;;7.20;75.10;;;10.33;57.13;100474.78;4918200;29;20281;-48
2021/12/05 14:01:31;;;;;;;13.17;11.03;;;7.20;75.40;;;10.36;57.46;100477.06;4918546;29;20270;-50
2021/12/05 14:04:24;;;;;;;13.53;10.87;;;7.20;75.60;;;10.36;56.86;100484.94;4926568;29;20201;-49
2021/12/05 14:07:01;;;;;;;13.57;10.30;;;7.30;75.80;;;10.44;57.22;100481.41;4935317;29;20236;-49
2021/12/05 14:09:34;;;;;;;14.07;10.53;;;7.30;75.60;;;10.48;57.40;100494.03;4920272;29;20345;-48
2021/12/05 14:12:08;;;;;;;13.27;10.70;;;7.30;75.40;;;10.47;56.97;100502.09;4936979;29;20349;-50
2021/12/05 14:14:40;;;;;;;11.37;9.50;;;7.30;75.10;;;10.49;56.74;100511.44;4923334;29;20656;-51
2021/12/05 14:17:12;;;;;;;11.13;9.40;;;7.40;75.30;;;10.52;57.18;100512.91;4920156;29;20524;-48
2021/12/05 14:19:45;;;;;;;12.97;10.70;;;7.40;75.20;;;10.52;56.71;100516.34;4937743;29;20198;-50
2021/12/05 14:22:16;;;;;;;10.20;9.10;;;7.40;75.20;;;10.51;56.60;100530.50;4937128;29;20663;-50
2021/12/05 14:24:49;;;;;;;10.30;9.27;;;7.40;74.80;;;10.50;56.46;100528.06;4937341;29;20194;-48
2021/12/05 14:27:22;;;;;;;12.70;9.77;;;7.40;74.70;;;10.47;56.56;100539.75;4936974;29;20236;-49
2021/12/05 14:29:54;;;;;;;14.47;9.97;;;7.40;74.60;;;10.44;56.48;100548.00;4935175;29;20225;-47
2021/12/05 14:32:26;;;;;;;14.93;9.97;;;7.40;74.60;;;10.43;56.73;100554.28;4936933;29;20273;-48
2021/12/05 14:35:03;;;;;;;12.97;9.87;;;7.30;74.60;;;10.42;56.84;100557.88;4937202;29;20273;-48
2021/12/05 14:37:33;;;;;;;12.83;10.30;;;7.30;74.70;;;10.44;56.77;100570.84;4936929;29;20224;-48
2021/12/05 14:40:05;;;;;;;13.20;9.67;;;7.30;74.70;;;10.42;56.42;100563.16;4937088;29;20273;-46
2021/12/05 14:42:36;;;;;;;11.53;10.33;;;7.30;74.80;;;10.37;56.90;100570.75;4936740;29;20194;-49
2021/12/05 14:45:10;;;;;;;13.23;9.90;;;7.30;74.60;;;10.32;56.61;100573.09;4936996;29;20282;-48
2021/12/05 14:47:40;;;;;;;10.83;9.37;;;7.30;74.40;;;10.31;57.01;100576.72;4937041;29;20300;-48
2021/12/05 14:50:14;;;;;;;12.93;10.27;;;7.20;74.70;;;10.33;56.73;100584.44;4937123;29;20308;-48
2021/12/05 14:52:45;;;;;;;13.70;9.93;;;7.20;75.00;;;10.36;57.09;100590.19;4936473;29;20640;-47
2021/12/05 14:55:18;;;;;;;14.33;9.87;;;7.20;75.10;;;10.40;57.11;100591.44;4936800;29;20674;-50
2021/12/05 14:57:49;;;;;;;12.30;9.93;;;7.30;75.40;;;10.43;56.80;100598.19;4935038;29;20281;-50
2021/12/05 15:00:26;;;;;;;12.57;9.33;;;7.30;75.20;;;10.42;57.09;100599.16;4933054;29;20586;-48
2021/12/05 15:03:01;;;;;;;11.27;9.50;;;7.30;75.00;;;10.41;57.14;100600.97;4935131;29;20292;-50
2021/12/05 15:05:33;;;;;;;11.43;9.77;;;7.30;75.20;;;10.43;56.59;100606.06;4935702;29;20197;-48
2021/12/05 15:08:04;;;;;;;12.13;9.77;;;7.30;75.10;;;10.46;57.20;100605.72;4916689;29;20218;-48
2021/12/05 15:10:31;;;;;;;14.80;10.47;;;7.40;75.20;;;10.47;56.58;100608.16;4935969;29;20249;-48
2021/12/05 15:13:00;;;;;;;11.47;10.27;;;7.30;74.90;;;10.46;56.97;100617.03;4936097;29;20260;-51
2021/12/05 15:15:28;;;;;;;13.87;10.53;;;7.40;74.80;;;10.46;56.49;100610.97;4935326;29;20198;-48
2021/12/05 15:17:57;;;;;;;11.30;9.27;;;7.40;74.80;;;10.48;56.58;100619.50;4935633;29;20237;-49
2021/12/05 15:20:28;;;;;;;12.10;9.63;;;7.40;74.80;;;10.51;56.94;100625.22;4933205;29;20194;-50
2021/12/05 15:23:07;;;;;;;12.20;10.17;;;7.40;75.00;;;10.53;56.90;100638.22;4936165;29;20603;-47
2021/12/05 15:25:38;;;;;;;13.23;9.20;;;7.40;74.80;;;10.56;56.49;100645.75;4935900;29;20198;-48
2021/12/05 15:28:08;;;;;;;12.20;9.93;;;7.40;74.60;;;10.54;56.35;100645.94;4935470;29;20721;-49
2021/12/05 15:30:40;;;;;;;13.47;11.00;;;7.50;74.30;;;10.50;56.75;100644.66;4936386;29;20276;-48
2021/12/05 15:33:11;;;;;;;11.07;9.17;;;7.40;74.10;;;10.45;56.20;100652.25;4935842;29;20194;-49
2021/12/05 15:35:40;;;;;;;11.37;10.17;;;7.40;73.90;;;10.43;56.32;100663.94;4933057;29;20256;-46
2021/12/05 15:38:12;;;;;;;11.93;10.20;;;7.40;74.20;;;10.39;56.60;100658.19;4935825;29;20244;-48
2021/12/05 15:40:55;;;;;;;11.33;9.70;;;7.40;74.30;;;10.38;57.00;100667.09;4918032;29;20195;-47
2021/12/05 15:43:26;;;;;;;11.90;9.17;;;7.30;74.20;;;10.36;56.21;100669.09;4935245;29;20200;-48
2021/12/05 15:45:57;;;;;;;10.80;8.90;;;7.30;74.20;;;10.33;57.10;100672.06;4935831;29;20198;-46
2021/12/05 15:48:29;;;;;;;10.40;9.23;;;7.30;74.30;;;10.31;56.97;100671.44;4936014;29;20237;-47
2021/12/05 15:51:02;;;;;;;9.93;8.93;;;7.30;74.20;;;10.26;56.91;100672.94;4917013;29;20225;-47
2021/12/05 15:53:35;;;;;;;9.73;8.63;;;7.30;74.00;;;10.20;56.67;100674.44;4936355;29;20271;-47
2021/12/05 15:56:06;;;;;;;9.80;8.20;;;7.20;73.80;;;10.16;56.63;100673.16;4936957;29;20251;-46
2021/12/05 15:58:52;;;;;;;12.33;8.70;;;7.20;74.00;;;10.09;56.63;100675.63;4936747;29;20296;-49
2021/12/05 16:01:24;;;;;;;8.53;7.63;;;7.10;73.70;;;10.05;56.22;100673.53;4935808;29;20589;-47
2021/12/05 16:03:59;;;;;;;8.53;7.33;;;7.10;74.00;;;10.02;56.40;100681.75;4901957;29;20197;-48
2021/12/05 16:06:35;;;;;;;9.73;7.50;;;7.00;74.00;;;9.99;57.10;100684.72;4903860;29;20268;-46